Zottegem, Belgium

8:26 PM CET on March 26, 2015 (GMT +0100)
Oordegem | Change Station
CLOSE
Current Station
Personal Weather Station
Location: Lede, VLAAMS GEWEST
Elevation: 125 ft
Nearby Weather Stations

Elev 125 ft 50.96 °N, 3.90 °E | Updated 10 minutes ago

Partly Cloudy
Partly Cloudy
45.2 °F
Feels Like 45 °F
N
1.0
Wind Variable Wind from ESE
Gusts 3.0 mph

Today
High -- | Low -- °F
--% Chance of Precip.
Yesterday
High -- | Low -- °F
Precip. -- in
6:35 AM 7:07 PM
Waxing Crescent, 45% visible
Pressure 29.74 in
Visibility 6.2 miles
Clouds Few 800 ft
Windchill 45 °F
Dew Point 43 °F
Humidity 93%
Rainfall 0.11 in
Snow Depth Not available.
UV 0 out of 12
Pollen Not available.
Air Quality Not available.
Flu Activity Not available.
METAR EBBR 261920Z 23010KT 9999 FEW008 07/06 Q1007 NOSIG

More Conditions Fewer Conditions

Pressure 29.74 in
Visibility 6.2 miles
Clouds Few 800 ft
Windchill 45 °F
Dew Point 43 °F
Humidity 93%
Rainfall 0.11 in
Snow Depth Not available.
UV 0 out of 12
Pollen Not available.
Air Quality Not available.
Flu Activity Not available.
METAR EBBR 261920Z 23010KT 9999 FEW008 07/06 Q1007 NOSIG

More Conditions Fewer Conditions

10-Day Weather Forecast

Almanac

Astronomy

Mar. 26, 2015 Rise Set
Actual Time
Civil Twilight
Nautical Twilight
Astronomical Twilight
Moon
Length of Visible Light
Length of Day
Tomorrow will be .
, % of the Moon is Illuminated

Today's Extremes

Country Highs Country Lows

Community

WunderPhotos

Upload Photos

1,808,605 photos uploaded!

WunderBlogs® & News

Nearby

Air Quality

  Air Quality AQ Index Pollutant
Not available.

Snow Depth

Station Depth Elevation

Earthquake Activity

City Distance Mag. Time & Date
Minimum magnitude displayed is 2.5.

Coastal Water Temperatures

Place Temperature

Stations

Nearby Weather Stations

Station Location Temp. Windchill Dew Point Humidity Wind Precip. Elev Updated Type